Manila Express — VRCX7 — position and weather

sailwx.info

Track history (hours):
 
Tides and Currents Weather Stations Pressure Air Temp Water Temp Dewpoint Dewpoint Depression Visibility Wind Speed Wind Dir Waves Ship Positions

Manila Express

Last reported at 2017-Apr-16 05:50 UTC. Time now 2017-Apr-23 21:49 UTC.
Position N 29°35' W 116°36'.

Length 260 m; draft 10.3 m.

Type: Ship (hazmat cat A). MMSI: 477830800.

Date/timePositionNaut miles runAvg speedWind from/ knotsBaromVisibWave heightAir tempDewpointWater temp
2017-Apr-16 05:50N 29°35' W 116°36'715.9
2017-Apr-16 05:25N 29°42' W 116°38'3216.2
2017-Apr-16 03:28N 30°12' W 116°50'816.1
2017-Apr-16 02:59N 30°19' W 116°52'816.1
2017-Apr-16 02:30N 30°27' W 116°55'816.0
2017-Apr-16 01:58N 30°35' W 116°58'1316.0
2017-Apr-16 01:10N 30°47' W 117°03'215.6
2017-Apr-16 01:00N 30°49' W 117°04'815.7
2017-Apr-16 00:30N 30°57' W 117°07'815.7
2017-Apr-16 00:00N 31°04' W 117°09'815.5
2017-Apr-15 23:30N 31°11' W 117°12'815.9
2017-Apr-15 23:00N 31°19' W 117°15'1116.4
2017-Apr-15 22:20N 31°29' W 117°19'516.6
2017-Apr-15 22:00N 31°35' W 117°21'816.8
2017-Apr-15 21:30N 31°43' W 117°24'916.7
2017-Apr-15 20:59N 31°51' W 117°28'816.6
2017-Apr-15 20:30N 31°58' W 117°31'816.5
2017-Apr-15 20:00N 32°06' W 117°34'714.1
2017-Apr-15 19:30N 32°13' W 117°36'713.5
2017-Apr-15 19:00N 32°19' W 117°38'713.4
2017-Apr-15 18:30N 32°26' W 117°41'713.5
2017-Apr-15 18:00N 32°32' W 117°44'816.0
2017-Apr-15 17:30N 32°40' W 117°47'917.0
2017-Apr-15 17:01N 32°47' W 117°51'817.0
2017-Apr-15 16:31N 32°55' W 117°54'815.5
2017-Apr-15 16:00N 33°02' W 117°58'815.6
2017-Apr-15 15:31N 33°10' W 118°02'815.7
2017-Apr-15 15:01N 33°17' W 118°05'611.5
2017-Apr-15 14:30N 33°22' W 118°08'1111.4
2017-Apr-15 13:30N 33°33' W 118°12'611.6
2017-Apr-15 13:00N 33°39' W 118°14'4 8.9
2017-Apr-15 12:30N 33°43' W 118°16'1 1.7
2017-Apr-15 11:59N 33°44' W 118°15'0 0.0
2017-Apr-15 11:29N 33°44' W 118°15'0 0.0
2017-Apr-15 10:59N 33°44' W 118°15'0 0.0
2017-Apr-15 10:29N 33°44' W 118°15'0 0.0
2017-Apr-15 09:59N 33°44' W 118°15'0 0.0
2017-Apr-15 09:29N 33°44' W 118°15'0 0.0
2017-Apr-15 08:59N 33°44' W 118°15'0 0.0
2017-Apr-15 08:29N 33°44' W 118°15'0 0.0
2017-Apr-15 07:59N 33°44' W 118°15'0 0.0
2017-Apr-15 07:29N 33°44' W 118°15'0 0.0
2017-Apr-15 06:59N 33°44' W 118°15'0 0.0
2017-Apr-15 06:26N 33°44' W 118°15'0 0.0
2017-Apr-15 05:59N 33°44' W 118°15'0 0.0
2017-Apr-15 05:29N 33°44' W 118°15'0 0.0
2017-Apr-15 04:59N 33°44' W 118°15'0 0.0
2017-Apr-15 04:29N 33°44' W 118°15'0 0.0
2017-Apr-15 03:59N 33°44' W 118°15'0 0.0
2017-Apr-15 03:29N 33°44' W 118°15'0 0.0
2017-Apr-15 02:59N 33°44' W 118°15'0 0.0
2017-Apr-15 02:29N 33°44' W 118°15'0 0.0
2017-Apr-15 01:59N 33°44' W 118°15'0 0.1
2017-Apr-15 01:30N 33°44' W 118°15'2 4.1
2017-Apr-15 01:00N 33°42' W 118°14'4 7.6
2017-Apr-15 00:30N 33°38' W 118°13'4 7.3
2017-Apr-15 00:00N 33°36' W 118°17'4 8.5
2017-Apr-14 23:31N 33°37' W 118°22'4 7.1
2017-Apr-14 23:01N 33°39' W 118°26'3 5.6
2017-Apr-14 22:31N 33°40' W 118°29'4 7.4
2017-Apr-14 22:00N 33°42' W 118°33'1 2.2
2017-Apr-14 21:30N 33°42' W 118°34'2 2.5
2017-Apr-14 20:55N 33°43' W 118°36'1 2.4
2017-Apr-14 20:31N 33°44' W 118°37'3 5.7
2017-Apr-14 20:00N 33°45' W 118°40'5 8.9
2017-Apr-14 19:30N 33°47' W 118°44'5 9.9
2017-Apr-14 19:00N 33°50' W 118°49'5 9.9
2017-Apr-14 18:29N 33°52' W 118°55'3 6.3
2017-Apr-14 18:00N 33°54' W 118°58'5 9.3
2017-Apr-14 17:27N 33°56' W 119°03'510.3
2017-Apr-14 17:00N 33°58' W 119°08'510.1
2017-Apr-14 16:30N 34°01' W 119°14'510.0
2017-Apr-14 16:00N 34°03' W 119°19'510.4
2017-Apr-14 15:29N 34°04' W 119°25'510.2
2017-Apr-14 15:00N 34°06' W 119°31'5 9.8
2017-Apr-14 14:30N 34°07' W 119°37'10 9.8
2017-Apr-14 13:30N 34°10' W 119°48'5 9.7
2017-Apr-14 13:00N 34°11' W 119°54'5 9.9
2017-Apr-14 12:30N 34°12' W 119°59'5 9.9
2017-Apr-14 12:00N 34°14' W 120°05'5 9.7
2017-Apr-14 11:30N 34°15' W 120°11'5 9.5
2017-Apr-14 11:00N 34°16' W 120°16'5 9.4
2017-Apr-14 10:29N 34°17' W 120°22'5 9.3
2017-Apr-14 10:00N 34°19' W 120°27'5 9.8
2017-Apr-14 09:30N 34°20' W 120°33'611.5
2017-Apr-14 09:00N 34°21' W 120°40'611.5
2017-Apr-14 08:30N 34°23' W 120°46'611.2
2017-Apr-14 08:00N 34°24' W 120°53'510.9
2017-Apr-14 07:30N 34°26' W 120°59'510.7
2017-Apr-14 07:00N 34°30' W 121°03'611.2
2017-Apr-14 06:30N 34°35' W 121°07'611.2
2017-Apr-14 06:00N 34°40' W 121°11'611.3
2017-Apr-14 05:30N 34°44' W 121°14'611.2
2017-Apr-14 05:00N 34°49' W 121°18'611.3
2017-Apr-14 04:30N 34°54' W 121°21'611.7
2017-Apr-14 04:00N 34°59' W 121°25'611.6
2017-Apr-14 03:30N 35°04' W 121°28'611.8
2017-Apr-14 03:00N 35°09' W 121°32'612.1
2017-Apr-14 02:30N 35°14' W 121°36'612.0
2017-Apr-14 01:59N 35°20' W 121°40'611.7
2017-Apr-14 01:30N 35°24' W 121°44'611.9
2017-Apr-14 01:00N 35°30' W 121°48'612.0
2017-Apr-14 00:30N 35°34' W 121°52'611.5
2017-Apr-14 00:00N 35°39' W 121°55'611.0
2017-Apr-13 23:30N 35°44' W 121°59'611.4
2017-Apr-13 23:00N 35°49' W 122°03'611.5
2017-Apr-13 22:30N 35°54' W 122°06'611.6
2017-Apr-13 22:00N 35°59' W 122°09'611.4
2017-Apr-13 21:30N 36°05' W 122°12'611.5
2017-Apr-13 21:00N 36°10' W 122°14'611.8
2017-Apr-13 20:30N 36°15' W 122°17'612.4
2017-Apr-13 20:00N 36°21' W 122°20'612.0
2017-Apr-13 19:30N 36°27' W 122°22'611.9
2017-Apr-13 19:00N 36°32' W 122°25'611.7
2017-Apr-13 18:30N 36°38' W 122°28'611.5
2017-Apr-13 18:00N 36°43' W 122°30'611.8
2017-Apr-13 17:30N 36°49' W 122°33'611.9
2017-Apr-13 17:00N 36°54' W 122°36'612.0
2017-Apr-13 16:30N 36°59' W 122°39'612.0
2017-Apr-13 16:00N 37°05' W 122°41'611.6
2017-Apr-13 15:30N 37°11' W 122°44'611.9
2017-Apr-13 15:00N 37°17' W 122°44'611.9
2017-Apr-13 14:30N 37°23' W 122°44'1211.9
2017-Apr-13 13:30N 37°34' W 122°44'611.7
2017-Apr-13 13:00N 37°40' W 122°43'510.6
2017-Apr-13 12:30N 37°45' W 122°40'815.9
2017-Apr-13 12:00N 37°48' W 122°31'613.0
2017-Apr-13 11:30N 37°49' W 122°23'3 6.0
2017-Apr-13 11:00N 37°48' W 122°19'0 0.0
2017-Apr-13 10:30N 37°48' W 122°19'0 0.0
2017-Apr-13 10:00N 37°48' W 122°19'0 0.0
2017-Apr-13 09:30N 37°48' W 122°19'0 0.0
2017-Apr-13 09:00N 37°48' W 122°19'0 0.0
2017-Apr-13 08:30N 37°48' W 122°19'0 0.0
2017-Apr-13 08:00N 37°48' W 122°19'0 0.0
2017-Apr-13 07:30N 37°48' W 122°19'0 0.0
2017-Apr-13 07:00N 37°48' W 122°19'0 0.0
2017-Apr-13 06:30N 37°48' W 122°19'0 0.0
2017-Apr-13 06:00N 37°48' W 122°19'0 0.0
2017-Apr-13 05:30N 37°48' W 122°19'0 0.0
2017-Apr-13 05:00N 37°48' W 122°19'0 0.0
2017-Apr-13 04:30N 37°48' W 122°19'0 0.0
2017-Apr-13 04:00N 37°48' W 122°19'0 0.0
2017-Apr-13 03:30N 37°48' W 122°19'0 0.0
2017-Apr-13 03:00N 37°48' W 122°19'0 0.0
2017-Apr-13 02:30N 37°48' W 122°19'0 0.0
2017-Apr-13 02:00N 37°48' W 122°19'0 0.0
2017-Apr-13 01:30N 37°48' W 122°19'0 0.0
2017-Apr-13 01:00N 37°48' W 122°19'0 0.0
2017-Apr-13 00:30N 37°48' W 122°19'0 0.0
2017-Apr-13 00:00N 37°48' W 122°19'0 0.0
2017-Apr-12 23:30N 37°48' W 122°19'0 0.0
2017-Apr-12 23:00N 37°48' W 122°19'0 0.0
2017-Apr-12 22:30N 37°48' W 122°19'0 0.0
2017-Apr-12 22:00N 37°48' W 122°19'0 0.0
2017-Apr-12 21:30N 37°48' W 122°19'0 0.0
2017-Apr-12 21:00N 37°48' W 122°19'0 0.0
2017-Apr-12 20:30N 37°48' W 122°19'0 0.0
2017-Apr-12 20:00N 37°48' W 122°19'0 0.0
2017-Apr-12 19:30N 37°48' W 122°19'0 0.0
2017-Apr-12 19:00N 37°48' W 122°19'0 0.0
2017-Apr-12 18:30N 37°48' W 122°19'0 0.1
2017-Apr-12 18:00N 37°48' W 122°19'1 2.9
2017-Apr-12 17:30N 37°48' W 122°17'2 3.3
2017-Apr-12 17:00N 37°48' W 122°19'0 0.4
2017-Apr-12 16:31N 37°48' W 122°20'0 0.8
2017-Apr-12 16:00N 37°48' W 122°20'3 5.7
2017-Apr-12 15:31N 37°45' W 122°22'1 1.1
2017-Apr-12 15:00N 37°45' W 122°21'0 0.1
2017-Apr-12 14:00N 37°45' W 122°21'0 0.0
2017-Apr-12 13:30N 37°45' W 122°21'0 0.0
2017-Apr-12 13:00N 37°45' W 122°21'0 0.1
2017-Apr-12 12:30N 37°45' W 122°21'0 0.0
2017-Apr-12 12:00N 37°45' W 122°21'0 0.1
2017-Apr-12 11:30N 37°45' W 122°21'0 0.1
2017-Apr-12 11:00N 37°45' W 122°21'0 0.0
2017-Apr-12 10:30N 37°45' W 122°21'0 0.1
2017-Apr-12 10:00N 37°45' W 122°21'0 0.0
2017-Apr-12 09:30N 37°45' W 122°21'0 0.4
2017-Apr-12 09:00N 37°45' W 122°21'0 0.2
2017-Apr-12 08:30N 37°45' W 122°21'0 0.0
2017-Apr-12 08:00N 37°45' W 122°21'0 0.1
2017-Apr-12 07:30N 37°45' W 122°21'0 0.1
2017-Apr-12 07:00N 37°45' W 122°21'0 0.1
2017-Apr-12 06:30N 37°45' W 122°21'0 0.0
2017-Apr-12 06:00N 37°45' W 122°21'0 0.0
2017-Apr-12 05:30N 37°45' W 122°21'0 0.0
2017-Apr-12 05:00N 37°45' W 122°21'0 0.0
2017-Apr-12 04:30N 37°45' W 122°21'0 0.0
2017-Apr-12 04:00N 37°45' W 122°21'0 0.4
2017-Apr-12 03:30N 37°45' W 122°21'0 0.2
2017-Apr-12 03:00N 37°45' W 122°21'0 0.1
2017-Apr-12 02:30N 37°45' W 122°21'3 6.6
2017-Apr-12 02:00N 37°48' W 122°22'713.2
2017-Apr-12 01:31N 37°48' W 122°31'713.4
2017-Apr-12 01:00N 37°46' W 122°39'5 9.1
2017-Apr-12 00:30N 37°45' W 122°44'612.9
2017-Apr-12 00:00N 37°48' W 122°52'510.9
2017-Apr-11 23:30N 37°51' W 122°57'611.5
2017-Apr-11 23:00N 37°54' W 123°04'611.6
2017-Apr-11 22:30N 37°57' W 123°10'611.7
2017-Apr-11 22:00N 38°01' W 123°15'612.1
2017-Apr-11 21:31N 38°06' W 123°20'612.5
2017-Apr-11 21:00N 38°11' W 123°26'612.7
2017-Apr-11 20:31N 38°15' W 123°32'612.4
2017-Apr-11 20:00N 38°18' W 123°38'612.0
2017-Apr-11 19:30N 38°23' W 123°44'611.9
2017-Apr-11 19:00N 38°26' W 123°50'611.8
2017-Apr-11 18:30N 38°30' W 123°56'1 1.8
2017-Apr-11 18:00N 38°30' W 123°57'0 0.6
2017-Apr-11 17:30N 38°30' W 123°57'611.7
2017-Apr-11 17:00N 38°35' W 124°01'611.7
2017-Apr-11 16:30N 38°38' W 124°07'812.0
2017-Apr-11 15:49N 38°43' W 124°16'41411.9
2017-Apr-10 05:06N 45°34' W 125°29'512.6
2017-Apr-10 04:44N 45°39' W 125°29'312.8
2017-Apr-10 04:29N 45°42' W 125°29'612.8
2017-Apr-10 04:00N 45°48' W 125°29'712.9
2017-Apr-10 03:30N 45°55' W 125°29'713.3
2017-Apr-10 03:00N 46°01' W 125°29'713.7
2017-Apr-10 02:31N 46°08' W 125°29'813.9
2017-Apr-10 01:56N 46°16' W 125°29'613.0
2017-Apr-10 01:30N 46°22' W 125°29'612.8
2017-Apr-10 01:01N 46°28' W 125°29'713.0
2017-Apr-10 00:29N 46°35' W 125°28'612.8
2017-Apr-10 00:01N 46°41' W 125°29'612.0
2017-Apr-09 23:29N 46°47' W 125°29'7311.5
2017-Apr-09 17:09N 48°00' W 125°25'212.3
2017-Apr-09 16:57N 48°02' W 125°24'512.2
2017-Apr-09 16:31N 48°07' W 125°21'612.2
2017-Apr-09 16:00N 48°13' W 125°17'612.4
2017-Apr-09 15:30N 48°19' W 125°13'612.6
2017-Apr-09 15:01N 48°24' W 125°08'1211.7
2017-Apr-09 14:01N 48°31' W 124°54'612.4
2017-Apr-09 13:30N 48°31' W 124°45'612.6
2017-Apr-09 13:01N 48°29' W 124°36'713.5
2017-Apr-09 12:31N 48°26' W 124°27'713.1
2017-Apr-09 12:01N 48°23' W 124°18'612.8
2017-Apr-09 11:30N 48°21' W 124°09'612.5
2017-Apr-09 11:00N 48°19' W 124°00'713.2
2017-Apr-09 10:30N 48°17' W 123°51'713.4
2017-Apr-09 09:58N 48°16' W 123°40'613.1
2017-Apr-09 09:30N 48°15' W 123°31'611.9
2017-Apr-09 09:01N 48°20' W 123°26'4 9.0
2017-Apr-09 08:30N 48°23' W 123°21'612.4
2017-Apr-09 08:00N 48°25' W 123°12'815.5
2017-Apr-09 07:30N 48°33' W 123°13'815.5
2017-Apr-09 07:00N 48°41' W 123°15'714.0
2017-Apr-09 06:30N 48°45' W 123°07'612.5
2017-Apr-09 06:01N 48°50' W 123°02'816.5
2017-Apr-09 05:31N 48°56' W 123°11'816.4
2017-Apr-09 05:00N 49°01' W 123°20'510.7
2017-Apr-09 04:31N 49°06' W 123°18'612.3
2017-Apr-09 04:00N 49°06' W 123°09'612.5
2017-Apr-09 03:30N 49°09' W 122°60'4 7.5
2017-Apr-09 03:01N 49°11' W 122°55'0 0.2
2017-Apr-09 02:29N 49°11' W 122°55'0 0.0
2017-Apr-09 01:59N 49°11' W 122°55'0 0.0
2017-Apr-09 01:29N 49°11' W 122°55'0 0.0
2017-Apr-09 00:59N 49°11' W 122°55'0 0.0
2017-Apr-09 00:29N 49°11' W 122°55'0 0.0
2017-Apr-08 23:58N 49°11' W 122°55'0 0.0
2017-Apr-08 23:28N 49°11' W 122°55'0 0.0
2017-Apr-08 22:52N 49°11' W 122°55'0 0.0
2017-Apr-08 22:25N 49°11' W 122°55'0 0.0
2017-Apr-08 21:58N 49°11' W 122°55'0 0.0
2017-Apr-08 21:28N 49°11' W 122°55'0 0.0
2017-Apr-08 20:55N 49°11' W 122°55'0 0.0
2017-Apr-08 20:28N 49°11' W 122°55'0 0.0
2017-Apr-08 19:58N 49°11' W 122°55'0 0.0
2017-Apr-08 19:28N 49°11' W 122°55'0 0.0
2017-Apr-08 18:58N 49°11' W 122°55'0 0.0
2017-Apr-08 18:28N 49°11' W 122°55'0 0.0
2017-Apr-08 17:58N 49°11' W 122°55'0 0.0
2017-Apr-08 17:28N 49°11' W 122°55'0 0.0
2017-Apr-08 16:58N 49°11' W 122°55'0 0.0
2017-Apr-08 16:28N 49°11' W 122°55'0 0.0
2017-Apr-08 15:58N 49°11' W 122°55'0 0.0
2017-Apr-08 15:25N 49°11' W 122°55'0 0.0
2017-Apr-08 14:58N 49°11' W 122°55'0 0.0
2017-Apr-08 13:58N 49°11' W 122°55'0 0.0
2017-Apr-08 13:28N 49°11' W 122°55'0 0.0
2017-Apr-08 12:58N 49°11' W 122°55'0 0.0
2017-Apr-08 12:28N 49°11' W 122°55'0 0.0
2017-Apr-08 11:58N 49°11' W 122°55'0 0.0
2017-Apr-08 11:28N 49°11' W 122°55'0 0.0
2017-Apr-08 10:58N 49°11' W 122°55'0 0.0
2017-Apr-08 10:28N 49°11' W 122°55'0 0.0
2017-Apr-08 09:58N 49°11' W 122°55'0 0.0
2017-Apr-08 09:28N 49°11' W 122°55'0 0.0
2017-Apr-08 08:58N 49°11' W 122°55'0 0.0
2017-Apr-08 08:28N 49°11' W 122°55'0 0.0
2017-Apr-08 07:58N 49°11' W 122°55'0 0.0
2017-Apr-08 07:28N 49°11' W 122°55'0 0.0
2017-Apr-08 06:58N 49°11' W 122°55'0 0.0
2017-Apr-08 06:25N 49°11' W 122°55'0 0.0
2017-Apr-08 05:58N 49°11' W 122°55'0 0.0
2017-Apr-08 05:28N 49°11' W 122°55'0 0.0
2017-Apr-08 04:55N 49°11' W 122°55'0 0.0
2017-Apr-08 04:28N 49°11' W 122°55'0 0.0
2017-Apr-08 03:55N 49°11' W 122°55'0 0.0
2017-Apr-08 03:28N 49°11' W 122°55'0 0.0
2017-Apr-08 02:58N 49°11' W 122°55'0 0.0
2017-Apr-08 02:28N 49°11' W 122°55'0 0.0
2017-Apr-08 01:58N 49°11' W 122°55'0 0.0
2017-Apr-08 01:28N 49°11' W 122°55'0 0.0
2017-Apr-08 00:58N 49°11' W 122°55'0 0.0
2017-Apr-07 23:21N 49°11' W 122°55'0 0.0
2017-Apr-07 23:00N 49°11' W 122°55'0 0.0
2017-Apr-07 22:30N 49°11' W 122°55'0 0.0
2017-Apr-07 22:00N 49°11' W 122°55'0 0.0
2017-Apr-07 21:30N 49°11' W 122°55'0 0.0
2017-Apr-07 21:00N 49°11' W 122°55'0 0.0
2017-Apr-07 20:30N 49°11' W 122°55'0 0.0
2017-Apr-07 20:00N 49°11' W 122°55'0 0.0
2017-Apr-07 19:30N 49°11' W 122°55'0 0.0
2017-Apr-07 19:00N 49°11' W 122°55'0 0.0
2017-Apr-07 18:30N 49°11' W 122°55'0 0.0
2017-Apr-07 18:00N 49°11' W 122°55'0 0.0
2017-Apr-07 17:30N 49°11' W 122°55'0 0.0
2017-Apr-07 17:00N 49°11' W 122°55'0 0.0
2017-Apr-07 16:30N 49°11' W 122°55'0 0.0
2017-Apr-07 16:00N 49°11' W 122°55'0 0.0
2017-Apr-07 15:30N 49°11' W 122°55'0 0.0
2017-Apr-07 15:00N 49°11' W 122°55'0 0.0
2017-Apr-07 14:00N 49°11' W 122°55'0 0.3
2017-Apr-07 13:31N 49°11' W 122°55'3 6.3
2017-Apr-07 13:00N 49°09' W 122°59'510.1
2017-Apr-07 12:31N 49°07' W 123°06'612.6
2017-Apr-07 12:00N 49°07' W 123°15'510.5
2017-Apr-07 11:31N 49°05' W 123°23'510.5
2017-Apr-07 11:00N 49°01' W 123°17'816.7
2017-Apr-07 10:30N 48°56' W 123°08'917.8
2017-Apr-07 10:00N 48°48' W 122°59'918.1
2017-Apr-07 09:30N 48°43' W 123°10'815.7
2017-Apr-07 09:00N 48°35' W 123°13'1019.2
2017-Apr-07 08:30N 48°26' W 123°10'917.1
2017-Apr-07 08:00N 48°23' W 123°21'3 5.4
2017-Apr-07 07:31N 48°20' W 123°23'4 7.3
2017-Apr-07 07:01N 48°16' W 123°23'3 6.6
2017-Apr-07 06:30N 48°13' W 123°26'3 6.8
2017-Apr-07 06:00N 48°10' W 123°24'510.3
2017-Apr-07 05:30N 48°10' W 123°16'816.4
2017-Apr-07 05:00N 48°13' W 123°05'1019.2
2017-Apr-07 04:30N 48°12' W 122°50'1018.7
2017-Apr-07 03:59N 48°06' W 122°39'919.4
2017-Apr-07 03:30N 47°57' W 122°33'918.2
2017-Apr-07 03:00N 47°49' W 122°27'918.9
2017-Apr-07 02:30N 47°40' W 122°27'611.7
2017-Apr-07 02:00N 47°36' W 122°21'1 1.5
2017-Apr-07 01:30N 47°35' W 122°21'0 0.0
2017-Apr-07 01:00N 47°35' W 122°21'0 0.0
2017-Apr-07 00:30N 47°35' W 122°21'0 0.0
2017-Apr-07 00:00N 47°35' W 122°21'0 0.0
2017-Apr-06 23:30N 47°35' W 122°21'0 0.0
2017-Apr-06 23:00N 47°35' W 122°21'0 0.0
2017-Apr-06 22:30N 47°35' W 122°21'0 0.0
2017-Apr-06 22:00N 47°35' W 122°21'0 0.0
2017-Apr-06 21:31N 47°35' W 122°21'0 0.0
2017-Apr-06 21:00N 47°35' W 122°21'0 0.0
2017-Apr-06 20:30N 47°35' W 122°21'0 0.0
2017-Apr-06 20:00N 47°35' W 122°21'0 0.0
2017-Apr-06 19:30N 47°35' W 122°21'0 0.0
2017-Apr-06 19:00N 47°35' W 122°21'0 0.0
2017-Apr-06 18:30N 47°35' W 122°21'0 0.0
2017-Apr-06 18:00N 47°35' W 122°21'0 0.0
2017-Apr-06 17:30N 47°35' W 122°21'0 0.0
2017-Apr-06 17:00N 47°35' W 122°21'0 0.0
2017-Apr-06 16:30N 47°35' W 122°21'0 0.0
2017-Apr-06 16:00N 47°35' W 122°21'0 0.0
2017-Apr-06 15:30N 47°35' W 122°21'0 0.0
2017-Apr-06 15:00N 47°35' W 122°21'0 0.0
2017-Apr-06 14:30N 47°35' W 122°21'0 0.0
2017-Apr-06 13:30N 47°35' W 122°21'0 0.0
2017-Apr-06 13:00N 47°35' W 122°21'0 0.0
2017-Apr-06 12:30N 47°35' W 122°21'0 0.0
2017-Apr-06 12:00N 47°35' W 122°21'0 0.0
2017-Apr-06 11:30N 47°35' W 122°21'0 0.0
2017-Apr-06 11:00N 47°35' W 122°21'0 0.0
2017-Apr-06 10:30N 47°35' W 122°21'0 0.0
2017-Apr-06 10:00N 47°35' W 122°21'0 0.0
2017-Apr-06 09:30N 47°35' W 122°21'0 0.0
2017-Apr-06 09:00N 47°35' W 122°21'0 0.0
2017-Apr-06 08:30N 47°35' W 122°21'0 0.0
2017-Apr-06 08:00N 47°35' W 122°21'0 0.0
2017-Apr-06 07:30N 47°35' W 122°21'0 0.0
2017-Apr-06 07:00N 47°35' W 122°21'0 0.0
2017-Apr-06 06:30N 47°35' W 122°21'0 0.0
2017-Apr-06 06:00N 47°35' W 122°21'  
Track history (hours):
 
Tides and Currents Weather Stations Pressure Air Temp Water Temp Dewpoint Dewpoint Depression Visibility Wind Speed Wind Dir Waves Ship Positions

Manila Express

Last reported at 2017-Apr-16 05:50 UTC. Time now 2017-Apr-23 21:49 UTC.
Position N 29°35' W 116°36'.

Length 260 m; draft 10.3 m.

Type: Ship (hazmat cat A). MMSI: 477830800.

Date/timePositionNaut miles runAvg speedWind from/ knotsBaromVisibWave heightAir tempDewpointWater temp
2017-Apr-16 05:50N 29°35' W 116°36'715.9
2017-Apr-16 05:25N 29°42' W 116°38'3216.2
2017-Apr-16 03:28N 30°12' W 116°50'816.1
2017-Apr-16 02:59N 30°19' W 116°52'816.1
2017-Apr-16 02:30N 30°27' W 116°55'816.0
2017-Apr-16 01:58N 30°35' W 116°58'1316.0
2017-Apr-16 01:10N 30°47' W 117°03'215.6
2017-Apr-16 01:00N 30°49' W 117°04'815.7
2017-Apr-16 00:30N 30°57' W 117°07'815.7
2017-Apr-16 00:00N 31°04' W 117°09'815.5
2017-Apr-15 23:30N 31°11' W 117°12'815.9
2017-Apr-15 23:00N 31°19' W 117°15'1116.4
2017-Apr-15 22:20N 31°29' W 117°19'516.6
2017-Apr-15 22:00N 31°35' W 117°21'816.8
2017-Apr-15 21:30N 31°43' W 117°24'916.7
2017-Apr-15 20:59N 31°51' W 117°28'816.6
2017-Apr-15 20:30N 31°58' W 117°31'816.5
2017-Apr-15 20:00N 32°06' W 117°34'714.1
2017-Apr-15 19:30N 32°13' W 117°36'713.5
2017-Apr-15 19:00N 32°19' W 117°38'713.4
2017-Apr-15 18:30N 32°26' W 117°41'713.5
2017-Apr-15 18:00N 32°32' W 117°44'816.0
2017-Apr-15 17:30N 32°40' W 117°47'917.0
2017-Apr-15 17:01N 32°47' W 117°51'817.0
2017-Apr-15 16:31N 32°55' W 117°54'815.5
2017-Apr-15 16:00N 33°02' W 117°58'815.6
2017-Apr-15 15:31N 33°10' W 118°02'815.7
2017-Apr-15 15:01N 33°17' W 118°05'611.5
2017-Apr-15 14:30N 33°22' W 118°08'1111.4
2017-Apr-15 13:30N 33°33' W 118°12'611.6
2017-Apr-15 13:00N 33°39' W 118°14'4 8.9
2017-Apr-15 12:30N 33°43' W 118°16'1 1.7
2017-Apr-15 11:59N 33°44' W 118°15'0 0.0
2017-Apr-15 11:29N 33°44' W 118°15'0 0.0
2017-Apr-15 10:59N 33°44' W 118°15'0 0.0
2017-Apr-15 10:29N 33°44' W 118°15'0 0.0
2017-Apr-15 09:59N 33°44' W 118°15'0 0.0
2017-Apr-15 09:29N 33°44' W 118°15'0 0.0
2017-Apr-15 08:59N 33°44' W 118°15'0 0.0
2017-Apr-15 08:29N 33°44' W 118°15'0 0.0
2017-Apr-15 07:59N 33°44' W 118°15'0 0.0
2017-Apr-15 07:29N 33°44' W 118°15'0 0.0
2017-Apr-15 06:59N 33°44' W 118°15'0 0.0
2017-Apr-15 06:26N 33°44' W 118°15'0 0.0
2017-Apr-15 05:59N 33°44' W 118°15'0 0.0
2017-Apr-15 05:29N 33°44' W 118°15'0 0.0
2017-Apr-15 04:59N 33°44' W 118°15'0 0.0
2017-Apr-15 04:29N 33°44' W 118°15'0 0.0
2017-Apr-15 03:59N 33°44' W 118°15'0 0.0
2017-Apr-15 03:29N 33°44' W 118°15'0 0.0
2017-Apr-15 02:59N 33°44' W 118°15'0 0.0
2017-Apr-15 02:29N 33°44' W 118°15'0 0.0
2017-Apr-15 01:59N 33°44' W 118°15'0 0.1
2017-Apr-15 01:30N 33°44' W 118°15'2 4.1
2017-Apr-15 01:00N 33°42' W 118°14'4 7.6
2017-Apr-15 00:30N 33°38' W 118°13'4 7.3
2017-Apr-15 00:00N 33°36' W 118°17'4 8.5
2017-Apr-14 23:31N 33°37' W 118°22'4 7.1
2017-Apr-14 23:01N 33°39' W 118°26'3 5.6
2017-Apr-14 22:31N 33°40' W 118°29'4 7.4
2017-Apr-14 22:00N 33°42' W 118°33'1 2.2
2017-Apr-14 21:30N 33°42' W 118°34'2 2.5
2017-Apr-14 20:55N 33°43' W 118°36'1 2.4
2017-Apr-14 20:31N 33°44' W 118°37'3 5.7
2017-Apr-14 20:00N 33°45' W 118°40'5 8.9
2017-Apr-14 19:30N 33°47' W 118°44'5 9.9
2017-Apr-14 19:00N 33°50' W 118°49'5 9.9
2017-Apr-14 18:29N 33°52' W 118°55'3 6.3
2017-Apr-14 18:00N 33°54' W 118°58'5 9.3
2017-Apr-14 17:27N 33°56' W 119°03'510.3
2017-Apr-14 17:00N 33°58' W 119°08'510.1
2017-Apr-14 16:30N 34°01' W 119°14'510.0
2017-Apr-14 16:00N 34°03' W 119°19'510.4
2017-Apr-14 15:29N 34°04' W 119°25'510.2
2017-Apr-14 15:00N 34°06' W 119°31'5 9.8
2017-Apr-14 14:30N 34°07' W 119°37'10 9.8
2017-Apr-14 13:30N 34°10' W 119°48'5 9.7
2017-Apr-14 13:00N 34°11' W 119°54'5 9.9
2017-Apr-14 12:30N 34°12' W 119°59'5 9.9
2017-Apr-14 12:00N 34°14' W 120°05'5 9.7
2017-Apr-14 11:30N 34°15' W 120°11'5 9.5
2017-Apr-14 11:00N 34°16' W 120°16'5 9.4
2017-Apr-14 10:29N 34°17' W 120°22'5 9.3
2017-Apr-14 10:00N 34°19' W 120°27'5 9.8
2017-Apr-14 09:30N 34°20' W 120°33'611.5
2017-Apr-14 09:00N 34°21' W 120°40'611.5
2017-Apr-14 08:30N 34°23' W 120°46'611.2
2017-Apr-14 08:00N 34°24' W 120°53'510.9
2017-Apr-14 07:30N 34°26' W 120°59'510.7
2017-Apr-14 07:00N 34°30' W 121°03'611.2
2017-Apr-14 06:30N 34°35' W 121°07'611.2
2017-Apr-14 06:00N 34°40' W 121°11'611.3
2017-Apr-14 05:30N 34°44' W 121°14'611.2
2017-Apr-14 05:00N 34°49' W 121°18'611.3
2017-Apr-14 04:30N 34°54' W 121°21'611.7
2017-Apr-14 04:00N 34°59' W 121°25'611.6
2017-Apr-14 03:30N 35°04' W 121°28'611.8
2017-Apr-14 03:00N 35°09' W 121°32'612.1
2017-Apr-14 02:30N 35°14' W 121°36'612.0
2017-Apr-14 01:59N 35°20' W 121°40'611.7
2017-Apr-14 01:30N 35°24' W 121°44'611.9
2017-Apr-14 01:00N 35°30' W 121°48'612.0
2017-Apr-14 00:30N 35°34' W 121°52'611.5
2017-Apr-14 00:00N 35°39' W 121°55'611.0
2017-Apr-13 23:30N 35°44' W 121°59'611.4
2017-Apr-13 23:00N 35°49' W 122°03'611.5
2017-Apr-13 22:30N 35°54' W 122°06'611.6
2017-Apr-13 22:00N 35°59' W 122°09'611.4
2017-Apr-13 21:30N 36°05' W 122°12'611.5
2017-Apr-13 21:00N 36°10' W 122°14'611.8
2017-Apr-13 20:30N 36°15' W 122°17'612.4
2017-Apr-13 20:00N 36°21' W 122°20'612.0
2017-Apr-13 19:30N 36°27' W 122°22'611.9
2017-Apr-13 19:00N 36°32' W 122°25'611.7
2017-Apr-13 18:30N 36°38' W 122°28'611.5
2017-Apr-13 18:00N 36°43' W 122°30'611.8
2017-Apr-13 17:30N 36°49' W 122°33'611.9
2017-Apr-13 17:00N 36°54' W 122°36'612.0
2017-Apr-13 16:30N 36°59' W 122°39'612.0
2017-Apr-13 16:00N 37°05' W 122°41'611.6
2017-Apr-13 15:30N 37°11' W 122°44'611.9
2017-Apr-13 15:00N 37°17' W 122°44'611.9
2017-Apr-13 14:30N 37°23' W 122°44'1211.9
2017-Apr-13 13:30N 37°34' W 122°44'611.7
2017-Apr-13 13:00N 37°40' W 122°43'510.6
2017-Apr-13 12:30N 37°45' W 122°40'815.9
2017-Apr-13 12:00N 37°48' W 122°31'613.0
2017-Apr-13 11:30N 37°49' W 122°23'3 6.0
2017-Apr-13 11:00N 37°48' W 122°19'0 0.0
2017-Apr-13 10:30N 37°48' W 122°19'0 0.0
2017-Apr-13 10:00N 37°48' W 122°19'0 0.0
2017-Apr-13 09:30N 37°48' W 122°19'0 0.0
2017-Apr-13 09:00N 37°48' W 122°19'0 0.0
2017-Apr-13 08:30N 37°48' W 122°19'0 0.0
2017-Apr-13 08:00N 37°48' W 122°19'0 0.0
2017-Apr-13 07:30N 37°48' W 122°19'0 0.0
2017-Apr-13 07:00N 37°48' W 122°19'0 0.0
2017-Apr-13 06:30N 37°48' W 122°19'0 0.0
2017-Apr-13 06:00N 37°48' W 122°19'0 0.0
2017-Apr-13 05:30N 37°48' W 122°19'0 0.0
2017-Apr-13 05:00N 37°48' W 122°19'0 0.0
2017-Apr-13 04:30N 37°48' W 122°19'0 0.0
2017-Apr-13 04:00N 37°48' W 122°19'0 0.0
2017-Apr-13 03:30N 37°48' W 122°19'0 0.0
2017-Apr-13 03:00N 37°48' W 122°19'0 0.0
2017-Apr-13 02:30N 37°48' W 122°19'0 0.0
2017-Apr-13 02:00N 37°48' W 122°19'0 0.0
2017-Apr-13 01:30N 37°48' W 122°19'0 0.0
2017-Apr-13 01:00N 37°48' W 122°19'0 0.0
2017-Apr-13 00:30N 37°48' W 122°19'0 0.0
2017-Apr-13 00:00N 37°48' W 122°19'0 0.0
2017-Apr-12 23:30N 37°48' W 122°19'0 0.0
2017-Apr-12 23:00N 37°48' W 122°19'0 0.0
2017-Apr-12 22:30N 37°48' W 122°19'0 0.0
2017-Apr-12 22:00N 37°48' W 122°19'0 0.0
2017-Apr-12 21:30N 37°48' W 122°19'0 0.0
2017-Apr-12 21:00N 37°48' W 122°19'0 0.0
2017-Apr-12 20:30N 37°48' W 122°19'0 0.0
2017-Apr-12 20:00N 37°48' W 122°19'0 0.0
2017-Apr-12 19:30N 37°48' W 122°19'0 0.0
2017-Apr-12 19:00N 37°48' W 122°19'0 0.0
2017-Apr-12 18:30N 37°48' W 122°19'0 0.1
2017-Apr-12 18:00N 37°48' W 122°19'1 2.9
2017-Apr-12 17:30N 37°48' W 122°17'2 3.3
2017-Apr-12 17:00N 37°48' W 122°19'0 0.4
2017-Apr-12 16:31N 37°48' W 122°20'0 0.8
2017-Apr-12 16:00N 37°48' W 122°20'3 5.7
2017-Apr-12 15:31N 37°45' W 122°22'1 1.1
2017-Apr-12 15:00N 37°45' W 122°21'0 0.1
2017-Apr-12 14:00N 37°45' W 122°21'0 0.0
2017-Apr-12 13:30N 37°45' W 122°21'0 0.0
2017-Apr-12 13:00N 37°45' W 122°21'0 0.1
2017-Apr-12 12:30N 37°45' W 122°21'0 0.0
2017-Apr-12 12:00N 37°45' W 122°21'0 0.1
2017-Apr-12 11:30N 37°45' W 122°21'0 0.1
2017-Apr-12 11:00N 37°45' W 122°21'0 0.0
2017-Apr-12 10:30N 37°45' W 122°21'0 0.1
2017-Apr-12 10:00N 37°45' W 122°21'0 0.0
2017-Apr-12 09:30N 37°45' W 122°21'0 0.4
2017-Apr-12 09:00N 37°45' W 122°21'0 0.2
2017-Apr-12 08:30N 37°45' W 122°21'0 0.0
2017-Apr-12 08:00N 37°45' W 122°21'0 0.1
2017-Apr-12 07:30N 37°45' W 122°21'0 0.1
2017-Apr-12 07:00N 37°45' W 122°21'0 0.1
2017-Apr-12 06:30N 37°45' W 122°21'0 0.0
2017-Apr-12 06:00N 37°45' W 122°21'0 0.0
2017-Apr-12 05:30N 37°45' W 122°21'0 0.0
2017-Apr-12 05:00N 37°45' W 122°21'0 0.0
2017-Apr-12 04:30N 37°45' W 122°21'0 0.0
2017-Apr-12 04:00N 37°45' W 122°21'0 0.4
2017-Apr-12 03:30N 37°45' W 122°21'0 0.2
2017-Apr-12 03:00N 37°45' W 122°21'0 0.1
2017-Apr-12 02:30N 37°45' W 122°21'3 6.6
2017-Apr-12 02:00N 37°48' W 122°22'713.2
2017-Apr-12 01:31N 37°48' W 122°31'713.4
2017-Apr-12 01:00N 37°46' W 122°39'5 9.1
2017-Apr-12 00:30N 37°45' W 122°44'612.9
2017-Apr-12 00:00N 37°48' W 122°52'510.9
2017-Apr-11 23:30N 37°51' W 122°57'611.5
2017-Apr-11 23:00N 37°54' W 123°04'611.6
2017-Apr-11 22:30N 37°57' W 123°10'611.7
2017-Apr-11 22:00N 38°01' W 123°15'612.1
2017-Apr-11 21:31N 38°06' W 123°20'612.5
2017-Apr-11 21:00N 38°11' W 123°26'612.7
2017-Apr-11 20:31N 38°15' W 123°32'612.4
2017-Apr-11 20:00N 38°18' W 123°38'612.0
2017-Apr-11 19:30N 38°23' W 123°44'611.9
2017-Apr-11 19:00N 38°26' W 123°50'611.8
2017-Apr-11 18:30N 38°30' W 123°56'1 1.8
2017-Apr-11 18:00N 38°30' W 123°57'0 0.6
2017-Apr-11 17:30N 38°30' W 123°57'611.7
2017-Apr-11 17:00N 38°35' W 124°01'611.7
2017-Apr-11 16:30N 38°38' W 124°07'812.0
2017-Apr-11 15:49N 38°43' W 124°16'41411.9
2017-Apr-10 05:06N 45°34' W 125°29'512.6
2017-Apr-10 04:44N 45°39' W 125°29'312.8
2017-Apr-10 04:29N 45°42' W 125°29'612.8
2017-Apr-10 04:00N 45°48' W 125°29'712.9
2017-Apr-10 03:30N 45°55' W 125°29'713.3
2017-Apr-10 03:00N 46°01' W 125°29'713.7
2017-Apr-10 02:31N 46°08' W 125°29'813.9
2017-Apr-10 01:56N 46°16' W 125°29'613.0
2017-Apr-10 01:30N 46°22' W 125°29'612.8
2017-Apr-10 01:01N 46°28' W 125°29'713.0
2017-Apr-10 00:29N 46°35' W 125°28'612.8
2017-Apr-10 00:01N 46°41' W 125°29'612.0
2017-Apr-09 23:29N 46°47' W 125°29'7311.5
2017-Apr-09 17:09N 48°00' W 125°25'212.3
2017-Apr-09 16:57N 48°02' W 125°24'512.2
2017-Apr-09 16:31N 48°07' W 125°21'612.2
2017-Apr-09 16:00N 48°13' W 125°17'612.4
2017-Apr-09 15:30N 48°19' W 125°13'612.6
2017-Apr-09 15:01N 48°24' W 125°08'1211.7
2017-Apr-09 14:01N 48°31' W 124°54'612.4
2017-Apr-09 13:30N 48°31' W 124°45'612.6
2017-Apr-09 13:01N 48°29' W 124°36'713.5
2017-Apr-09 12:31N 48°26' W 124°27'713.1
2017-Apr-09 12:01N 48°23' W 124°18'612.8
2017-Apr-09 11:30N 48°21' W 124°09'612.5
2017-Apr-09 11:00N 48°19' W 124°00'713.2
2017-Apr-09 10:30N 48°17' W 123°51'713.4
2017-Apr-09 09:58N 48°16' W 123°40'613.1
2017-Apr-09 09:30N 48°15' W 123°31'611.9
2017-Apr-09 09:01N 48°20' W 123°26'4 9.0
2017-Apr-09 08:30N 48°23' W 123°21'612.4
2017-Apr-09 08:00N 48°25' W 123°12'815.5
2017-Apr-09 07:30N 48°33' W 123°13'815.5
2017-Apr-09 07:00N 48°41' W 123°15'714.0
2017-Apr-09 06:30N 48°45' W 123°07'612.5
2017-Apr-09 06:01N 48°50' W 123°02'816.5
2017-Apr-09 05:31N 48°56' W 123°11'816.4
2017-Apr-09 05:00N 49°01' W 123°20'510.7
2017-Apr-09 04:31N 49°06' W 123°18'612.3
2017-Apr-09 04:00N 49°06' W 123°09'612.5
2017-Apr-09 03:30N 49°09' W 122°60'4 7.5
2017-Apr-09 03:01N 49°11' W 122°55'0 0.2
2017-Apr-09 02:29N 49°11' W 122°55'0 0.0
2017-Apr-09 01:59N 49°11' W 122°55'0 0.0
2017-Apr-09 01:29N 49°11' W 122°55'0 0.0
2017-Apr-09 00:59N 49°11' W 122°55'0 0.0
2017-Apr-09 00:29N 49°11' W 122°55'0 0.0
2017-Apr-08 23:58N 49°11' W 122°55'0 0.0
2017-Apr-08 23:28N 49°11' W 122°55'0 0.0
2017-Apr-08 22:52N 49°11' W 122°55'0 0.0
2017-Apr-08 22:25N 49°11' W 122°55'0 0.0
2017-Apr-08 21:58N 49°11' W 122°55'0 0.0
2017-Apr-08 21:28N 49°11' W 122°55'0 0.0
2017-Apr-08 20:55N 49°11' W 122°55'0 0.0
2017-Apr-08 20:28N 49°11' W 122°55'0 0.0
2017-Apr-08 19:58N 49°11' W 122°55'0 0.0
2017-Apr-08 19:28N 49°11' W 122°55'0 0.0
2017-Apr-08 18:58N 49°11' W 122°55'0 0.0
2017-Apr-08 18:28N 49°11' W 122°55'0 0.0
2017-Apr-08 17:58N 49°11' W 122°55'0 0.0
2017-Apr-08 17:28N 49°11' W 122°55'0 0.0
2017-Apr-08 16:58N 49°11' W 122°55'0 0.0
2017-Apr-08 16:28N 49°11' W 122°55'0 0.0
2017-Apr-08 15:58N 49°11' W 122°55'0 0.0
2017-Apr-08 15:25N 49°11' W 122°55'0 0.0
2017-Apr-08 14:58N 49°11' W 122°55'0 0.0
2017-Apr-08 13:58N 49°11' W 122°55'0 0.0
2017-Apr-08 13:28N 49°11' W 122°55'0 0.0
2017-Apr-08 12:58N 49°11' W 122°55'0 0.0
2017-Apr-08 12:28N 49°11' W 122°55'0 0.0
2017-Apr-08 11:58N 49°11' W 122°55'0 0.0
2017-Apr-08 11:28N 49°11' W 122°55'0 0.0
2017-Apr-08 10:58N 49°11' W 122°55'0 0.0
2017-Apr-08 10:28N 49°11' W 122°55'0 0.0
2017-Apr-08 09:58N 49°11' W 122°55'0 0.0
2017-Apr-08 09:28N 49°11' W 122°55'0 0.0
2017-Apr-08 08:58N 49°11' W 122°55'0 0.0
2017-Apr-08 08:28N 49°11' W 122°55'0 0.0
2017-Apr-08 07:58N 49°11' W 122°55'0 0.0
2017-Apr-08 07:28N 49°11' W 122°55'0 0.0
2017-Apr-08 06:58N 49°11' W 122°55'0 0.0
2017-Apr-08 06:25N 49°11' W 122°55'0 0.0
2017-Apr-08 05:58N 49°11' W 122°55'0 0.0
2017-Apr-08 05:28N 49°11' W 122°55'0 0.0
2017-Apr-08 04:55N 49°11' W 122°55'0 0.0
2017-Apr-08 04:28N 49°11' W 122°55'0 0.0
2017-Apr-08 03:55N 49°11' W 122°55'0 0.0
2017-Apr-08 03:28N 49°11' W 122°55'0 0.0
2017-Apr-08 02:58N 49°11' W 122°55'0 0.0
2017-Apr-08 02:28N 49°11' W 122°55'0 0.0
2017-Apr-08 01:58N 49°11' W 122°55'0 0.0
2017-Apr-08 01:28N 49°11' W 122°55'0 0.0
2017-Apr-08 00:58N 49°11' W 122°55'0 0.0
2017-Apr-07 23:21N 49°11' W 122°55'0 0.0
2017-Apr-07 23:00N 49°11' W 122°55'0 0.0
2017-Apr-07 22:30N 49°11' W 122°55'0 0.0
2017-Apr-07 22:00N 49°11' W 122°55'0 0.0
2017-Apr-07 21:30N 49°11' W 122°55'0 0.0
2017-Apr-07 21:00N 49°11' W 122°55'0 0.0
2017-Apr-07 20:30N 49°11' W 122°55'0 0.0
2017-Apr-07 20:00N 49°11' W 122°55'0 0.0
2017-Apr-07 19:30N 49°11' W 122°55'0 0.0
2017-Apr-07 19:00N 49°11' W 122°55'0 0.0
2017-Apr-07 18:30N 49°11' W 122°55'0 0.0
2017-Apr-07 18:00N 49°11' W 122°55'0 0.0
2017-Apr-07 17:30N 49°11' W 122°55'0 0.0
2017-Apr-07 17:00N 49°11' W 122°55'0 0.0
2017-Apr-07 16:30N 49°11' W 122°55'0 0.0
2017-Apr-07 16:00N 49°11' W 122°55'0 0.0
2017-Apr-07 15:30N 49°11' W 122°55'0 0.0
2017-Apr-07 15:00N 49°11' W 122°55'0 0.0
2017-Apr-07 14:00N 49°11' W 122°55'0 0.3
2017-Apr-07 13:31N 49°11' W 122°55'3 6.3
2017-Apr-07 13:00N 49°09' W 122°59'510.1
2017-Apr-07 12:31N 49°07' W 123°06'612.6
2017-Apr-07 12:00N 49°07' W 123°15'510.5
2017-Apr-07 11:31N 49°05' W 123°23'510.5
2017-Apr-07 11:00N 49°01' W 123°17'816.7
2017-Apr-07 10:30N 48°56' W 123°08'917.8
2017-Apr-07 10:00N 48°48' W 122°59'918.1
2017-Apr-07 09:30N 48°43' W 123°10'815.7
2017-Apr-07 09:00N 48°35' W 123°13'1019.2
2017-Apr-07 08:30N 48°26' W 123°10'917.1
2017-Apr-07 08:00N 48°23' W 123°21'3 5.4
2017-Apr-07 07:31N 48°20' W 123°23'4 7.3
2017-Apr-07 07:01N 48°16' W 123°23'3 6.6
2017-Apr-07 06:30N 48°13' W 123°26'3 6.8
2017-Apr-07 06:00N 48°10' W 123°24'510.3
2017-Apr-07 05:30N 48°10' W 123°16'816.4
2017-Apr-07 05:00N 48°13' W 123°05'1019.2
2017-Apr-07 04:30N 48°12' W 122°50'1018.7
2017-Apr-07 03:59N 48°06' W 122°39'919.4
2017-Apr-07 03:30N 47°57' W 122°33'918.2
2017-Apr-07 03:00N 47°49' W 122°27'918.9
2017-Apr-07 02:30N 47°40' W 122°27'611.7
2017-Apr-07 02:00N 47°36' W 122°21'1 1.5
2017-Apr-07 01:30N 47°35' W 122°21'0 0.0
2017-Apr-07 01:00N 47°35' W 122°21'0 0.0
2017-Apr-07 00:30N 47°35' W 122°21'0 0.0
2017-Apr-07 00:00N 47°35' W 122°21'0 0.0
2017-Apr-06 23:30N 47°35' W 122°21'0 0.0
2017-Apr-06 23:00N 47°35' W 122°21'0 0.0
2017-Apr-06 22:30N 47°35' W 122°21'0 0.0
2017-Apr-06 22:00N 47°35' W 122°21'0 0.0
2017-Apr-06 21:31N 47°35' W 122°21'0 0.0
2017-Apr-06 21:00N 47°35' W 122°21'0 0.0
2017-Apr-06 20:30N 47°35' W 122°21'0 0.0
2017-Apr-06 20:00N 47°35' W 122°21'0 0.0
2017-Apr-06 19:30N 47°35' W 122°21'0 0.0
2017-Apr-06 19:00N 47°35' W 122°21'0 0.0
2017-Apr-06 18:30N 47°35' W 122°21'0 0.0
2017-Apr-06 18:00N 47°35' W 122°21'0 0.0
2017-Apr-06 17:30N 47°35' W 122°21'0 0.0
2017-Apr-06 17:00N 47°35' W 122°21'0 0.0
2017-Apr-06 16:30N 47°35' W 122°21'0 0.0
2017-Apr-06 16:00N 47°35' W 122°21'0 0.0
2017-Apr-06 15:30N 47°35' W 122°21'0 0.0
2017-Apr-06 15:00N 47°35' W 122°21'0 0.0
2017-Apr-06 14:30N 47°35' W 122°21'0 0.0
2017-Apr-06 13:30N 47°35' W 122°21'0 0.0
2017-Apr-06 13:00N 47°35' W 122°21'0 0.0
2017-Apr-06 12:30N 47°35' W 122°21'0 0.0
2017-Apr-06 12:00N 47°35' W 122°21'0 0.0
2017-Apr-06 11:30N 47°35' W 122°21'0 0.0
2017-Apr-06 11:00N 47°35' W 122°21'0 0.0
2017-Apr-06 10:30N 47°35' W 122°21'0 0.0
2017-Apr-06 10:00N 47°35' W 122°21'0 0.0
2017-Apr-06 09:30N 47°35' W 122°21'0 0.0
2017-Apr-06 09:00N 47°35' W 122°21'0 0.0
2017-Apr-06 08:30N 47°35' W 122°21'0 0.0
2017-Apr-06 08:00N 47°35' W 122°21'0 0.0
2017-Apr-06 07:30N 47°35' W 122°21'0 0.0
2017-Apr-06 07:00N 47°35' W 122°21'0 0.0
2017-Apr-06 06:30N 47°35' W 122°21'0 0.0
2017-Apr-06 06:00N 47°35' W 122°21'  

Dump ship's entire track history